sensor_id;sensor_type;location;lat;lon;timestamp;P1;durP1;ratioP1;P2;durP2;ratioP2
83552;SDS011;73510;50.866;5.420;2024-03-23T00:54:21;5.95;;;2.10;;
83552;SDS011;73510;50.866;5.420;2024-03-23T00:56:47;11.25;;;3.38;;
83552;SDS011;73510;50.866;5.420;2024-03-23T00:59:12;7.25;;;2.42;;
83552;SDS011;73510;50.866;5.420;2024-03-23T01:01:39;7.13;;;2.33;;
83552;SDS011;73510;50.866;5.420;2024-03-23T01:04:04;8.52;;;2.17;;
83552;SDS011;73510;50.866;5.420;2024-03-23T01:06:30;6.43;;;1.75;;
83552;SDS011;73510;50.866;5.420;2024-03-23T01:08:56;9.15;;;2.28;;
83552;SDS011;73510;50.866;5.420;2024-03-23T01:11:21;7.20;;;2.17;;
83552;SDS011;73510;50.866;5.420;2024-03-23T01:13:47;7.15;;;2.40;;
83552;SDS011;73510;50.866;5.420;2024-03-23T01:16:12;6.13;;;1.83;;
83552;SDS011;73510;50.866;5.420;2024-03-23T01:18:38;6.13;;;2.20;;
83552;SDS011;73510;50.866;5.420;2024-03-23T01:21:04;7.30;;;2.35;;
83552;SDS011;73510;50.866;5.420;2024-03-23T01:23:29;5.40;;;1.77;;
83552;SDS011;73510;50.866;5.420;2024-03-23T01:25:55;6.30;;;2.00;;
83552;SDS011;73510;50.866;5.420;2024-03-23T01:28:21;5.05;;;2.15;;
83552;SDS011;73510;50.866;5.420;2024-03-23T01:30:48;5.85;;;1.88;;
83552;SDS011;73510;50.866;5.420;2024-03-23T01:33:15;9.23;;;2.90;;
83552;SDS011;73510;50.866;5.420;2024-03-23T01:35:41;7.78;;;2.50;;
83552;SDS011;73510;50.866;5.420;2024-03-23T01:38:06;7.80;;;2.50;;
83552;SDS011;73510;50.866;5.420;2024-03-23T01:40:32;7.03;;;2.17;;
83552;SDS011;73510;50.866;5.420;2024-03-23T01:42:58;7.80;;;1.95;;
83552;SDS011;73510;50.866;5.420;2024-03-23T01:45:28;5.93;;;1.80;;
83552;SDS011;73510;50.866;5.420;2024-03-23T01:47:55;4.93;;;2.35;;
83552;SDS011;73510;50.866;5.420;2024-03-23T01:50:20;9.80;;;1.92;;
83552;SDS011;73510;50.866;5.420;2024-03-23T01:52:46;7.00;;;2.10;;
83552;SDS011;73510;50.866;5.420;2024-03-23T01:55:13;9.75;;;2.22;;
83552;SDS011;73510;50.866;5.420;2024-03-23T01:57:38;10.48;;;2.25;;
83552;SDS011;73510;50.866;5.420;2024-03-23T02:00:04;8.93;;;2.42;;
83552;SDS011;73510;50.866;5.420;2024-03-23T02:02:31;7.68;;;2.15;;
83552;SDS011;73510;50.866;5.420;2024-03-23T02:04:57;9.20;;;2.03;;
83552;SDS011;73510;50.866;5.420;2024-03-23T02:07:24;7.00;;;1.80;;
83552;SDS011;73510;50.866;5.420;2024-03-23T02:09:50;7.70;;;2.45;;
83552;SDS011;73510;50.866;5.420;2024-03-23T02:12:17;9.23;;;2.65;;
83552;SDS011;73510;50.866;5.420;2024-03-23T02:14:43;7.03;;;2.20;;
83552;SDS011;73510;50.866;5.420;2024-03-23T02:17:09;6.03;;;2.05;;
83552;SDS011;73510;50.866;5.420;2024-03-23T02:19:34;5.55;;;2.55;;
83552;SDS011;73510;50.866;5.420;2024-03-23T02:22:00;8.80;;;2.08;;
83552;SDS011;73510;50.866;5.420;2024-03-23T02:24:26;5.72;;;2.17;;
83552;SDS011;73510;50.866;5.420;2024-03-23T02:26:51;7.50;;;2.15;;
83552;SDS011;73510;50.866;5.420;2024-03-23T02:29:17;10.65;;;2.10;;
83552;SDS011;73510;50.866;5.420;2024-03-23T02:31:44;4.22;;;1.80;;
83552;SDS011;73510;50.866;5.420;2024-03-23T02:34:10;7.53;;;1.90;;
83552;SDS011;73510;50.866;5.420;2024-03-23T02:36:36;9.32;;;2.20;;
83552;SDS011;73510;50.866;5.420;2024-03-23T02:39:01;9.48;;;2.20;;
83552;SDS011;73510;50.866;5.420;2024-03-23T02:41:27;6.38;;;2.38;;
83552;SDS011;73510;50.866;5.420;2024-03-23T02:43:53;10.05;;;2.85;;
83552;SDS011;73510;50.866;5.420;2024-03-23T02:46:19;9.98;;;2.10;;
83552;SDS011;73510;50.866;5.420;2024-03-23T02:48:44;9.30;;;2.55;;
83552;SDS011;73510;50.866;5.420;2024-03-23T02:51:10;5.95;;;2.13;;
83552;SDS011;73510;50.866;5.420;2024-03-23T02:53:36;9.13;;;2.30;;
83552;SDS011;73510;50.866;5.420;2024-03-23T02:56:01;5.20;;;1.73;;
83552;SDS011;73510;50.866;5.420;2024-03-23T02:58:27;8.77;;;2.55;;
83552;SDS011;73510;50.866;5.420;2024-03-23T03:00:53;10.00;;;2.17;;
83552;SDS011;73510;50.866;5.420;2024-03-23T03:03:18;9.73;;;2.63;;
83552;SDS011;73510;50.866;5.420;2024-03-23T03:05:44;6.00;;;2.20;;
83552;SDS011;73510;50.866;5.420;2024-03-23T03:08:09;8.52;;;2.53;;
83552;SDS011;73510;50.866;5.420;2024-03-23T03:10:35;4.50;;;2.15;;
83552;SDS011;73510;50.866;5.420;2024-03-23T03:13:01;7.38;;;1.92;;
83552;SDS011;73510;50.866;5.420;2024-03-23T03:15:28;11.60;;;2.45;;
83552;SDS011;73510;50.866;5.420;2024-03-23T03:17:53;8.88;;;2.35;;
83552;SDS011;73510;50.866;5.420;2024-03-23T03:20:19;9.52;;;2.35;;
83552;SDS011;73510;50.866;5.420;2024-03-23T03:22:47;6.38;;;2.20;;
83552;SDS011;73510;50.866;5.420;2024-03-23T03:25:12;6.10;;;2.45;;
83552;SDS011;73510;50.866;5.420;2024-03-23T03:27:38;9.20;;;2.47;;
83552;SDS011;73510;50.866;5.420;2024-03-23T03:30:04;6.78;;;2.70;;
83552;SDS011;73510;50.866;5.420;2024-03-23T03:32:31;5.78;;;1.90;;
83552;SDS011;73510;50.866;5.420;2024-03-23T03:34:57;7.32;;;2.65;;
83552;SDS011;73510;50.866;5.420;2024-03-23T03:37:23;10.77;;;2.40;;
83552;SDS011;73510;50.866;5.420;2024-03-23T03:39:50;5.45;;;2.33;;
83552;SDS011;73510;50.866;5.420;2024-03-23T03:42:16;9.55;;;2.60;;
83552;SDS011;73510;50.866;5.420;2024-03-23T03:44:41;9.20;;;2.38;;
83552;SDS011;73510;50.866;5.420;2024-03-23T03:47:07;7.40;;;2.25;;
83552;SDS011;73510;50.866;5.420;2024-03-23T03:49:33;9.15;;;2.25;;
83552;SDS011;73510;50.866;5.420;2024-03-23T03:51:58;8.80;;;2.30;;
83552;SDS011;73510;50.866;5.420;2024-03-23T03:54:26;8.85;;;2.30;;
83552;SDS011;73510;50.866;5.420;2024-03-23T03:56:51;5.97;;;2.20;;
83552;SDS011;73510;50.866;5.420;2024-03-23T03:59:17;7.88;;;2.55;;
83552;SDS011;73510;50.866;5.420;2024-03-23T04:01:43;9.13;;;2.50;;
83552;SDS011;73510;50.866;5.420;2024-03-23T04:04:08;7.28;;;2.33;;
83552;SDS011;73510;50.866;5.420;2024-03-23T04:06:34;7.35;;;2.00;;
83552;SDS011;73510;50.866;5.420;2024-03-23T04:09:00;5.97;;;2.00;;
83552;SDS011;73510;50.866;5.420;2024-03-23T04:11:26;11.38;;;2.08;;
83552;SDS011;73510;50.866;5.420;2024-03-23T04:13:51;8.73;;;2.03;;
83552;SDS011;73510;50.866;5.420;2024-03-23T04:16:34;7.97;;;2.40;;
83552;SDS011;73510;50.866;5.420;2024-03-23T04:21:26;4.70;;;1.60;;
83552;SDS011;73510;50.866;5.420;2024-03-23T04:23:52;7.40;;;1.85;;
83552;SDS011;73510;50.866;5.420;2024-03-23T04:26:17;4.90;;;2.28;;
83552;SDS011;73510;50.866;5.420;2024-03-23T04:28:43;6.68;;;2.67;;
83552;SDS011;73510;50.866;5.420;2024-03-23T04:31:09;5.80;;;2.25;;
83552;SDS011;73510;50.866;5.420;2024-03-23T04:33:34;6.50;;;1.73;;
83552;SDS011;73510;50.866;5.420;2024-03-23T04:36:00;4.85;;;2.63;;
83552;SDS011;73510;50.866;5.420;2024-03-23T04:38:26;7.13;;;2.00;;
83552;SDS011;73510;50.866;5.420;2024-03-23T04:40:58;6.28;;;1.70;;
83552;SDS011;73510;50.866;5.420;2024-03-23T04:43:27;5.30;;;1.90;;
83552;SDS011;73510;50.866;5.420;2024-03-23T04:45:53;7.32;;;2.42;;
83552;SDS011;73510;50.866;5.420;2024-03-23T04:48:20;7.97;;;2.40;;
83552;SDS011;73510;50.866;5.420;2024-03-23T04:50:47;7.00;;;2.22;;
83552;SDS011;73510;50.866;5.420;2024-03-23T04:53:13;5.60;;;2.65;;
83552;SDS011;73510;50.866;5.420;2024-03-23T04:55:39;5.57;;;2.25;;
83552;SDS011;73510;50.866;5.420;2024-03-23T04:58:05;8.63;;;2.97;;
83552;SDS011;73510;50.866;5.420;2024-03-23T05:00:30;12.05;;;3.40;;
83552;SDS011;73510;50.866;5.420;2024-03-23T05:02:56;20.65;;;4.35;;
83552;SDS011;73510;50.866;5.420;2024-03-23T05:05:22;6.38;;;2.80;;
83552;SDS011;73510;50.866;5.420;2024-03-23T05:07:48;10.27;;;3.42;;
83552;SDS011;73510;50.866;5.420;2024-03-23T05:10:14;10.48;;;3.25;;
83552;SDS011;73510;50.866;5.420;2024-03-23T05:12:39;10.63;;;3.80;;
83552;SDS011;73510;50.866;5.420;2024-03-23T05:15:06;7.50;;;3.65;;
83552;SDS011;73510;50.866;5.420;2024-03-23T05:17:34;10.25;;;3.28;;
83552;SDS011;73510;50.866;5.420;2024-03-23T05:20:01;8.35;;;3.90;;
83552;SDS011;73510;50.866;5.420;2024-03-23T05:22:28;10.30;;;4.93;;
83552;SDS011;73510;50.866;5.420;2024-03-23T05:24:53;10.50;;;4.10;;
83552;SDS011;73510;50.866;5.420;2024-03-23T05:27:19;11.07;;;3.88;;
83552;SDS011;73510;50.866;5.420;2024-03-23T05:29:45;11.55;;;4.57;;
83552;SDS011;73510;50.866;5.420;2024-03-23T05:32:10;9.00;;;4.50;;
83552;SDS011;73510;50.866;5.420;2024-03-23T05:34:36;9.25;;;3.75;;
83552;SDS011;73510;50.866;5.420;2024-03-23T05:37:02;11.98;;;4.90;;
83552;SDS011;73510;50.866;5.420;2024-03-23T05:39:28;9.98;;;4.93;;
83552;SDS011;73510;50.866;5.420;2024-03-23T05:41:53;15.77;;;5.05;;
83552;SDS011;73510;50.866;5.420;2024-03-23T05:44:19;9.57;;;4.65;;
83552;SDS011;73510;50.866;5.420;2024-03-23T05:46:45;8.75;;;5.03;;
83552;SDS011;73510;50.866;5.420;2024-03-23T05:49:13;12.00;;;4.85;;
83552;SDS011;73510;50.866;5.420;2024-03-23T05:51:40;10.00;;;5.05;;
83552;SDS011;73510;50.866;5.420;2024-03-23T05:54:06;16.20;;;5.47;;
83552;SDS011;73510;50.866;5.420;2024-03-23T05:56:31;9.32;;;4.50;;
83552;SDS011;73510;50.866;5.420;2024-03-23T05:58:57;10.55;;;5.00;;
83552;SDS011;73510;50.866;5.420;2024-03-23T06:01:23;13.02;;;4.85;;
83552;SDS011;73510;50.866;5.420;2024-03-23T06:03:48;11.45;;;5.03;;
83552;SDS011;73510;50.866;5.420;2024-03-23T06:06:14;10.85;;;5.32;;
83552;SDS011;73510;50.866;5.420;2024-03-23T06:08:40;12.00;;;4.97;;
83552;SDS011;73510;50.866;5.420;2024-03-23T06:11:06;19.42;;;5.80;;
83552;SDS011;73510;50.866;5.420;2024-03-23T06:13:32;7.88;;;5.30;;
83552;SDS011;73510;50.866;5.420;2024-03-23T06:15:58;13.55;;;5.57;;
83552;SDS011;73510;50.866;5.420;2024-03-23T06:18:25;14.40;;;4.93;;
83552;SDS011;73510;50.866;5.420;2024-03-23T06:20:50;11.60;;;6.18;;
83552;SDS011;73510;50.866;5.420;2024-03-23T06:23:16;14.38;;;6.30;;
83552;SDS011;73510;50.866;5.420;2024-03-23T06:25:44;15.52;;;6.07;;
83552;SDS011;73510;50.866;5.420;2024-03-23T06:28:10;13.07;;;5.15;;
83552;SDS011;73510;50.866;5.420;2024-03-23T06:30:36;14.60;;;5.63;;
83552;SDS011;73510;50.866;5.420;2024-03-23T06:33:02;14.63;;;6.40;;
83552;SDS011;73510;50.866;5.420;2024-03-23T06:35:27;13.32;;;5.53;;
83552;SDS011;73510;50.866;5.420;2024-03-23T06:37:53;14.48;;;6.13;;
83552;SDS011;73510;50.866;5.420;2024-03-23T06:40:19;12.15;;;6.10;;
83552;SDS011;73510;50.866;5.420;2024-03-23T06:42:44;14.50;;;6.10;;
83552;SDS011;73510;50.866;5.420;2024-03-23T06:45:10;14.02;;;5.38;;
83552;SDS011;73510;50.866;5.420;2024-03-23T06:47:36;14.70;;;6.25;;
83552;SDS011;73510;50.866;5.420;2024-03-23T06:50:02;12.52;;;5.82;;
83552;SDS011;73510;50.866;5.420;2024-03-23T06:52:29;7.88;;;4.60;;
83552;SDS011;73510;50.866;5.420;2024-03-23T06:54:55;14.63;;;6.43;;
83552;SDS011;73510;50.866;5.420;2024-03-23T06:57:21;11.85;;;6.18;;
83552;SDS011;73510;50.866;5.420;2024-03-23T06:59:47;12.13;;;5.65;;
83552;SDS011;73510;50.866;5.420;2024-03-23T07:02:13;12.63;;;5.78;;
83552;SDS011;73510;50.866;5.420;2024-03-23T07:04:39;9.93;;;4.95;;
83552;SDS011;73510;50.866;5.420;2024-03-23T07:07:05;20.83;;;6.65;;
83552;SDS011;73510;50.866;5.420;2024-03-23T07:09:30;9.55;;;5.50;;
83552;SDS011;73510;50.866;5.420;2024-03-23T07:11:56;13.68;;;5.15;;
83552;SDS011;73510;50.866;5.420;2024-03-23T07:14:22;9.15;;;4.35;;
83552;SDS011;73510;50.866;5.420;2024-03-23T07:16:48;10.70;;;4.88;;
83552;SDS011;73510;50.866;5.420;2024-03-23T07:19:15;12.40;;;4.82;;
83552;SDS011;73510;50.866;5.420;2024-03-23T07:21:41;12.18;;;4.57;;
83552;SDS011;73510;50.866;5.420;2024-03-23T07:24:10;11.60;;;5.50;;
83552;SDS011;73510;50.866;5.420;2024-03-23T07:26:36;9.90;;;3.67;;
83552;SDS011;73510;50.866;5.420;2024-03-23T07:29:03;7.28;;;3.60;;
83552;SDS011;73510;50.866;5.420;2024-03-23T07:31:29;8.85;;;3.58;;
83552;SDS011;73510;50.866;5.420;2024-03-23T07:33:55;10.40;;;3.40;;
83552;SDS011;73510;50.866;5.420;2024-03-23T07:36:20;10.35;;;3.30;;
83552;SDS011;73510;50.866;5.420;2024-03-23T07:38:46;10.05;;;3.88;;
83552;SDS011;73510;50.866;5.420;2024-03-23T07:41:14;6.32;;;2.65;;
83552;SDS011;73510;50.866;5.420;2024-03-23T07:43:44;7.82;;;3.47;;
83552;SDS011;73510;50.866;5.420;2024-03-23T07:46:10;6.00;;;2.70;;
83552;SDS011;73510;50.866;5.420;2024-03-23T07:48:37;6.50;;;2.50;;
83552;SDS011;73510;50.866;5.420;2024-03-23T07:51:04;7.25;;;2.80;;
83552;SDS011;73510;50.866;5.420;2024-03-23T07:53:31;8.20;;;2.20;;
83552;SDS011;73510;50.866;5.420;2024-03-23T07:55:59;9.55;;;3.50;;
83552;SDS011;73510;50.866;5.420;2024-03-23T07:58:26;12.10;;;3.25;;
83552;SDS011;73510;50.866;5.420;2024-03-23T08:00:52;11.93;;;3.58;;
83552;SDS011;73510;50.866;5.420;2024-03-23T08:03:18;6.80;;;2.50;;
83552;SDS011;73510;50.866;5.420;2024-03-23T08:05:44;10.15;;;2.83;;
83552;SDS011;73510;50.866;5.420;2024-03-23T08:08:10;8.07;;;3.22;;
83552;SDS011;73510;50.866;5.420;2024-03-23T08:10:36;6.50;;;2.90;;
83552;SDS011;73510;50.866;5.420;2024-03-23T08:13:11;7.53;;;2.50;;
83552;SDS011;73510;50.866;5.420;2024-03-23T08:15:37;8.13;;;2.83;;
83552;SDS011;73510;50.866;5.420;2024-03-23T08:18:02;9.20;;;2.20;;
83552;SDS011;73510;50.866;5.420;2024-03-23T08:20:29;9.93;;;3.25;;
83552;SDS011;73510;50.866;5.420;2024-03-23T08:22:55;13.25;;;3.05;;
83552;SDS011;73510;50.866;5.420;2024-03-23T08:25:21;8.57;;;1.92;;
83552;SDS011;73510;50.866;5.420;2024-03-23T08:27:46;4.97;;;1.98;;
83552;SDS011;73510;50.866;5.420;2024-03-23T08:30:12;8.00;;;2.08;;
83552;SDS011;73510;50.866;5.420;2024-03-23T08:32:38;6.97;;;2.83;;
83552;SDS011;73510;50.866;5.420;2024-03-23T08:35:04;7.40;;;2.10;;
83552;SDS011;73510;50.866;5.420;2024-03-23T08:37:30;7.43;;;2.20;;
83552;SDS011;73510;50.866;5.420;2024-03-23T08:39:55;8.70;;;2.47;;
83552;SDS011;73510;50.866;5.420;2024-03-23T08:42:21;8.30;;;2.67;;
83552;SDS011;73510;50.866;5.420;2024-03-23T08:44:47;6.30;;;1.80;;
83552;SDS011;73510;50.866;5.420;2024-03-23T08:47:15;8.10;;;1.70;;
83552;SDS011;73510;50.866;5.420;2024-03-23T08:49:41;4.25;;;1.17;;
83552;SDS011;73510;50.866;5.420;2024-03-23T08:52:06;4.78;;;1.52;;
83552;SDS011;73510;50.866;5.420;2024-03-23T08:54:32;4.72;;;1.27;;
83552;SDS011;73510;50.866;5.420;2024-03-23T08:56:59;5.47;;;1.52;;
83552;SDS011;73510;50.866;5.420;2024-03-23T08:59:25;3.92;;;1.25;;
83552;SDS011;73510;50.866;5.420;2024-03-23T09:01:50;5.22;;;1.38;;
83552;SDS011;73510;50.866;5.420;2024-03-23T09:04:16;3.47;;;1.25;;
83552;SDS011;73510;50.866;5.420;2024-03-23T09:06:42;4.90;;;1.48;;
83552;SDS011;73510;50.866;5.420;2024-03-23T09:09:08;5.13;;;1.48;;
83552;SDS011;73510;50.866;5.420;2024-03-23T09:11:34;5.90;;;1.40;;
83552;SDS011;73510;50.866;5.420;2024-03-23T09:14:00;4.55;;;1.50;;
83552;SDS011;73510;50.866;5.420;2024-03-23T09:16:25;5.63;;;1.50;;
83552;SDS011;73510;50.866;5.420;2024-03-23T09:18:51;5.68;;;1.63;;
83552;SDS011;73510;50.866;5.420;2024-03-23T09:21:17;7.13;;;2.08;;
83552;SDS011;73510;50.866;5.420;2024-03-23T09:23:43;7.20;;;2.42;;
83552;SDS011;73510;50.866;5.420;2024-03-23T09:26:09;7.18;;;1.58;;
83552;SDS011;73510;50.866;5.420;2024-03-23T09:28:35;4.72;;;1.60;;
83552;SDS011;73510;50.866;5.420;2024-03-23T09:31:04;5.75;;;1.95;;
83552;SDS011;73510;50.866;5.420;2024-03-23T09:33:30;3.92;;;1.52;;
83552;SDS011;73510;50.866;5.420;2024-03-23T09:35:56;3.92;;;1.38;;
83552;SDS011;73510;50.866;5.420;2024-03-23T09:38:25;5.32;;;1.40;;
83552;SDS011;73510;50.866;5.420;2024-03-23T09:40:52;4.85;;;1.35;;
83552;SDS011;73510;50.866;5.420;2024-03-23T09:43:18;5.18;;;1.40;;
83552;SDS011;73510;50.866;5.420;2024-03-23T09:45:44;6.00;;;1.48;;
83552;SDS011;73510;50.866;5.420;2024-03-23T09:48:11;6.85;;;1.73;;
83552;SDS011;73510;50.866;5.420;2024-03-23T09:50:41;4.30;;;1.77;;
83552;SDS011;73510;50.866;5.420;2024-03-23T09:53:10;5.05;;;1.33;;
83552;SDS011;73510;50.866;5.420;2024-03-23T09:55:37;7.22;;;1.40;;
83552;SDS011;73510;50.866;5.420;2024-03-23T09:58:04;6.50;;;1.75;;
83552;SDS011;73510;50.866;5.420;2024-03-23T10:00:30;5.05;;;1.42;;
83552;SDS011;73510;50.866;5.420;2024-03-23T10:02:57;4.07;;;1.13;;
83552;SDS011;73510;50.866;5.420;2024-03-23T10:05:26;5.32;;;1.60;;
83552;SDS011;73510;50.866;5.420;2024-03-23T10:07:53;5.30;;;1.40;;
83552;SDS011;73510;50.866;5.420;2024-03-23T10:10:19;6.50;;;1.55;;
83552;SDS011;73510;50.866;5.420;2024-03-23T10:12:46;10.05;;;1.42;;
83552;SDS011;73510;50.866;5.420;2024-03-23T10:15:18;6.32;;;1.85;;
83552;SDS011;73510;50.866;5.420;2024-03-23T10:17:47;4.50;;;1.55;;
83552;SDS011;73510;50.866;5.420;2024-03-23T10:20:12;5.85;;;2.10;;
83552;SDS011;73510;50.866;5.420;2024-03-23T10:22:38;5.70;;;1.60;;
83552;SDS011;73510;50.866;5.420;2024-03-23T10:25:08;6.93;;;1.90;;
83552;SDS011;73510;50.866;5.420;2024-03-23T10:27:35;3.63;;;1.83;;
83552;SDS011;73510;50.866;5.420;2024-03-23T10:32:37;4.53;;;1.27;;
83552;SDS011;73510;50.866;5.420;2024-03-23T10:35:18;6.97;;;1.73;;
83552;SDS011;73510;50.866;5.420;2024-03-23T10:37:46;5.63;;;1.85;;
83552;SDS011;73510;50.866;5.420;2024-03-23T10:40:14;9.18;;;2.45;;
83552;SDS011;73510;50.866;5.420;2024-03-23T10:42:41;5.03;;;1.75;;
83552;SDS011;73510;50.866;5.420;2024-03-23T10:45:08;4.30;;;1.63;;
83552;SDS011;73510;50.866;5.420;2024-03-23T10:47:36;6.45;;;1.30;;
83552;SDS011;73510;50.866;5.420;2024-03-23T10:50:03;4.80;;;1.38;;
83552;SDS011;73510;50.866;5.420;2024-03-23T10:52:30;2.88;;;0.90;;
83552;SDS011;73510;50.866;5.420;2024-03-23T10:54:59;4.63;;;1.45;;
83552;SDS011;73510;50.866;5.420;2024-03-23T10:57:43;3.30;;;1.20;;
83552;SDS011;73510;50.866;5.420;2024-03-23T11:00:13;3.28;;;1.33;;
83552;SDS011;73510;50.866;5.420;2024-03-23T11:02:39;5.25;;;1.60;;
83552;SDS011;73510;50.866;5.420;2024-03-23T11:08:12;5.10;;;1.20;;
83552;SDS011;73510;50.866;5.420;2024-03-23T11:11:11;2.05;;;1.00;;
83552;SDS011;73510;50.866;5.420;2024-03-23T11:13:42;4.03;;;1.67;;
83552;SDS011;73510;50.866;5.420;2024-03-23T11:18:47;5.47;;;1.48;;
83552;SDS011;73510;50.866;5.420;2024-03-23T11:24:16;3.65;;;1.40;;
83552;SDS011;73510;50.866;5.420;2024-03-23T11:26:42;3.45;;;1.50;;
83552;SDS011;73510;50.866;5.420;2024-03-23T11:29:11;2.58;;;1.42;;
83552;SDS011;73510;50.866;5.420;2024-03-23T12:57:23;2.70;;;1.10;;
83552;SDS011;73510;50.866;5.420;2024-03-23T12:59:49;2.65;;;1.25;;
83552;SDS011;73510;50.866;5.420;2024-03-23T13:02:19;2.90;;;1.00;;
83552;SDS011;73510;50.866;5.420;2024-03-23T13:04:54;2.65;;;1.00;;
83552;SDS011;73510;50.866;5.420;2024-03-23T13:07:20;3.55;;;1.35;;
83552;SDS011;73510;50.866;5.420;2024-03-23T13:09:50;6.22;;;1.30;;
83552;SDS011;73510;50.866;5.420;2024-03-23T13:12:16;3.80;;;0.75;;
83552;SDS011;73510;50.866;5.420;2024-03-23T13:14:43;4.15;;;1.38;;
83552;SDS011;73510;50.866;5.420;2024-03-23T13:17:10;1.63;;;1.13;;
83552;SDS011;73510;50.866;5.420;2024-03-23T13:19:35;6.85;;;1.42;;
83552;SDS011;73510;50.866;5.420;2024-03-23T13:22:01;4.30;;;1.63;;
83552;SDS011;73510;50.866;5.420;2024-03-23T13:24:27;6.30;;;1.30;;
83552;SDS011;73510;50.866;5.420;2024-03-23T13:26:53;3.42;;;0.90;;
83552;SDS011;73510;50.866;5.420;2024-03-23T13:29:21;3.72;;;1.17;;
83552;SDS011;73510;50.866;5.420;2024-03-23T13:31:50;0.50;;;0.45;;
83552;SDS011;73510;50.866;5.420;2024-03-23T13:34:17;2.90;;;0.70;;
83552;SDS011;73510;50.866;5.420;2024-03-23T13:36:43;3.03;;;0.60;;
83552;SDS011;73510;50.866;5.420;2024-03-23T13:39:10;2.05;;;0.73;;
83552;SDS011;73510;50.866;5.420;2024-03-23T13:41:39;6.10;;;0.90;;
83552;SDS011;73510;50.866;5.420;2024-03-23T13:44:08;2.45;;;0.60;;
83552;SDS011;73510;50.866;5.420;2024-03-23T13:46:38;1.98;;;0.40;;
83552;SDS011;73510;50.866;5.420;2024-03-23T13:49:04;1.58;;;0.55;;
83552;SDS011;73510;50.866;5.420;2024-03-23T13:51:31;2.28;;;1.10;;
83552;SDS011;73510;50.866;5.420;2024-03-23T13:53:56;1.65;;;0.73;;
83552;SDS011;73510;50.866;5.420;2024-03-23T13:56:25;2.47;;;1.10;;
83552;SDS011;73510;50.866;5.420;2024-03-23T13:58:53;1.33;;;0.50;;
83552;SDS011;73510;50.866;5.420;2024-03-23T14:01:19;3.72;;;1.48;;
83552;SDS011;73510;50.866;5.420;2024-03-23T14:03:44;2.00;;;0.73;;
83552;SDS011;73510;50.866;5.420;2024-03-23T14:06:10;2.75;;;0.80;;
83552;SDS011;73510;50.866;5.420;2024-03-23T14:08:38;1.75;;;0.57;;
83552;SDS011;73510;50.866;5.420;2024-03-23T14:11:10;3.65;;;0.85;;
83552;SDS011;73510;50.866;5.420;2024-03-23T14:16:02;3.15;;;0.70;;
83552;SDS011;73510;50.866;5.420;2024-03-23T14:18:28;4.03;;;0.75;;
83552;SDS011;73510;50.866;5.420;2024-03-23T14:20:58;3.50;;;0.85;;
83552;SDS011;73510;50.866;5.420;2024-03-23T14:23:25;5.85;;;1.05;;
83552;SDS011;73510;50.866;5.420;2024-03-23T14:25:57;4.43;;;0.80;;
83552;SDS011;73510;50.866;5.420;2024-03-23T14:28:23;3.55;;;0.80;;
83552;SDS011;73510;50.866;5.420;2024-03-23T14:30:51;3.13;;;0.80;;
83552;SDS011;73510;50.866;5.420;2024-03-23T14:33:20;3.17;;;0.90;;
83552;SDS011;73510;50.866;5.420;2024-03-23T14:35:52;2.88;;;1.23;;
83552;SDS011;73510;50.866;5.420;2024-03-23T14:38:25;2.53;;;0.80;;
83552;SDS011;73510;50.866;5.420;2024-03-23T14:40:51;3.35;;;0.82;;
83552;SDS011;73510;50.866;5.420;2024-03-23T14:43:17;2.22;;;0.50;;
83552;SDS011;73510;50.866;5.420;2024-03-23T14:48:35;1.85;;;0.57;;
83552;SDS011;73510;50.866;5.420;2024-03-23T14:51:01;2.15;;;0.68;;
83552;SDS011;73510;50.866;5.420;2024-03-23T14:53:38;2.30;;;0.80;;
83552;SDS011;73510;50.866;5.420;2024-03-23T14:56:05;3.95;;;0.65;;
83552;SDS011;73510;50.866;5.420;2024-03-23T14:58:35;3.33;;;0.70;;
83552;SDS011;73510;50.866;5.420;2024-03-23T15:01:01;2.20;;;0.80;;
83552;SDS011;73510;50.866;5.420;2024-03-23T15:03:30;4.60;;;1.75;;
83552;SDS011;73510;50.866;5.420;2024-03-23T15:05:56;1.92;;;0.30;;
83552;SDS011;73510;50.866;5.420;2024-03-23T15:08:23;3.50;;;1.10;;
83552;SDS011;73510;50.866;5.420;2024-03-23T15:10:49;2.10;;;0.60;;
83552;SDS011;73510;50.866;5.420;2024-03-23T15:13:15;2.13;;;0.80;;
83552;SDS011;73510;50.866;5.420;2024-03-23T15:15:41;2.05;;;0.77;;
83552;SDS011;73510;50.866;5.420;2024-03-23T15:18:12;1.55;;;0.30;;
83552;SDS011;73510;50.866;5.420;2024-03-23T15:20:40;4.03;;;0.90;;
83552;SDS011;73510;50.866;5.420;2024-03-23T15:23:18;3.70;;;0.50;;
83552;SDS011;73510;50.866;5.420;2024-03-23T15:25:44;2.10;;;0.80;;
83552;SDS011;73510;50.866;5.420;2024-03-23T15:28:09;1.58;;;0.32;;
83552;SDS011;73510;50.866;5.420;2024-03-23T15:30:35;3.33;;;0.50;;
83552;SDS011;73510;50.866;5.420;2024-03-23T15:33:01;3.13;;;0.75;;
83552;SDS011;73510;50.866;5.420;2024-03-23T15:35:27;2.03;;;0.52;;
83552;SDS011;73510;50.866;5.420;2024-03-23T15:37:53;3.63;;;0.77;;
83552;SDS011;73510;50.866;5.420;2024-03-23T15:40:18;2.40;;;1.08;;
83552;SDS011;73510;50.866;5.420;2024-03-23T15:42:44;3.63;;;0.85;;
83552;SDS011;73510;50.866;5.420;2024-03-23T15:45:10;1.27;;;0.38;;
83552;SDS011;73510;50.866;5.420;2024-03-23T15:47:36;3.50;;;0.85;;
83552;SDS011;73510;50.866;5.420;2024-03-23T15:50:02;0.85;;;0.70;;
83552;SDS011;73510;50.866;5.420;2024-03-23T15:54:59;1.67;;;0.43;;
83552;SDS011;73510;50.866;5.420;2024-03-23T15:57:25;3.92;;;0.80;;
83552;SDS011;73510;50.866;5.420;2024-03-23T15:59:50;1.85;;;0.63;;
83552;SDS011;73510;50.866;5.420;2024-03-23T16:02:16;4.47;;;1.05;;
83552;SDS011;73510;50.866;5.420;2024-03-23T16:04:42;2.55;;;0.70;;
83552;SDS011;73510;50.866;5.420;2024-03-23T16:07:10;2.13;;;0.43;;
83552;SDS011;73510;50.866;5.420;2024-03-23T16:09:36;2.72;;;0.50;;
83552;SDS011;73510;50.866;5.420;2024-03-23T16:12:03;2.38;;;0.57;;
83552;SDS011;73510;50.866;5.420;2024-03-23T16:14:28;2.05;;;0.60;;
83552;SDS011;73510;50.866;5.420;2024-03-23T16:16:54;3.42;;;0.73;;
83552;SDS011;73510;50.866;5.420;2024-03-23T16:19:20;5.60;;;0.77;;
83552;SDS011;73510;50.866;5.420;2024-03-23T16:21:47;3.72;;;0.98;;
83552;SDS011;73510;50.866;5.420;2024-03-23T16:24:13;2.20;;;0.88;;
83552;SDS011;73510;50.866;5.420;2024-03-23T16:26:38;4.32;;;0.45;;
83552;SDS011;73510;50.866;5.420;2024-03-23T16:29:04;5.18;;;0.82;;
83552;SDS011;73510;50.866;5.420;2024-03-23T16:31:30;0.85;;;0.30;;
83552;SDS011;73510;50.866;5.420;2024-03-23T16:33:56;3.08;;;0.73;;
83552;SDS011;73510;50.866;5.420;2024-03-23T16:36:22;2.47;;;0.73;;
83552;SDS011;73510;50.866;5.420;2024-03-23T16:38:48;4.85;;;0.60;;
83552;SDS011;73510;50.866;5.420;2024-03-23T16:41:13;3.15;;;0.52;;
83552;SDS011;73510;50.866;5.420;2024-03-23T16:43:42;2.38;;;0.95;;
83552;SDS011;73510;50.866;5.420;2024-03-23T16:46:09;3.92;;;0.75;;
83552;SDS011;73510;50.866;5.420;2024-03-23T16:48:39;3.17;;;0.70;;
83552;SDS011;73510;50.866;5.420;2024-03-23T16:51:06;4.40;;;0.90;;
83552;SDS011;73510;50.866;5.420;2024-03-23T16:53:33;2.13;;;0.90;;
83552;SDS011;73510;50.866;5.420;2024-03-23T16:55:59;4.40;;;0.90;;
83552;SDS011;73510;50.866;5.420;2024-03-23T16:58:27;3.03;;;0.90;;
83552;SDS011;73510;50.866;5.420;2024-03-23T17:00:56;2.85;;;0.93;;
83552;SDS011;73510;50.866;5.420;2024-03-23T17:03:47;2.10;;;1.40;;
83552;SDS011;73510;50.866;5.420;2024-03-23T17:06:14;1.27;;;0.70;;
83552;SDS011;73510;50.866;5.420;2024-03-23T17:08:41;1.45;;;0.95;;
83552;SDS011;73510;50.866;5.420;2024-03-23T17:11:08;3.72;;;1.02;;
83552;SDS011;73510;50.866;5.420;2024-03-23T17:13:34;3.38;;;1.08;;
83552;SDS011;73510;50.866;5.420;2024-03-23T17:16:01;3.08;;;1.00;;
83552;SDS011;73510;50.866;5.420;2024-03-23T17:18:27;3.13;;;1.23;;
83552;SDS011;73510;50.866;5.420;2024-03-23T17:20:53;2.40;;;0.90;;
83552;SDS011;73510;50.866;5.420;2024-03-23T17:23:24;4.93;;;1.17;;